Time;durP1;ratioP1;P1;durP2;ratioP2;P2;SDS_P1;SDS_P2;PMS_P1;PMS_P2;Temp;Humidity;BMP_temperature;BMP_pressure;BME280_temperature;BME280_humidity;BME280_pressure;Samples;Min_cycle;Max_cycle;Signal;HPM_P1;HPM_P2
2023/01/15 00:01:57;;;;;;;;;;;7.80;99.90;;;;;;5027585;28;19935;-83
2023/01/15 00:04:24;;;;;;;;;;;7.80;99.90;;;;;;5033467;28;19925;-86
2023/01/15 00:06:53;;;;;;;;;;;7.80;99.90;;;;;;5023630;28;19988;-85
2023/01/15 00:09:20;;;;;;;;;;;7.70;99.90;;;;;;5020824;28;20023;-85
2023/01/15 00:11:46;;;;;;;;;;;7.80;99.90;;;;;;5032179;28;20061;-85
2023/01/15 00:14:13;;;;;;;;;;;7.80;99.90;;;;;;5030443;28;19925;-84
2023/01/15 00:16:40;;;;;;;;;;;7.80;99.90;;;;;;5025132;28;20386;-85
2023/01/15 00:19:11;;;;;;;;;;;7.80;99.90;;;;;;5037465;28;19921;-85
2023/01/15 00:21:37;;;;;;;;;;;7.80;99.90;;;;;;5042420;28;20437;-83
2023/01/15 00:29:34;;;;;;;;;;;7.90;99.90;;;;;;5043230;28;19929;-84
2023/01/15 00:32:02;;;;;;;;;;;8.00;99.90;;;;;;5029852;28;19947;-86
2023/01/15 00:34:31;;;;;;;;;;;8.00;99.90;;;;;;5066726;28;19909;-85
2023/01/15 00:36:58;;;;;;;;;;;8.00;99.90;;;;;;5065396;28;19927;-86
2023/01/15 00:39:25;;;;;;;;;;;8.00;99.90;;;;;;5048104;28;19976;-86
2023/01/15 00:41:53;;;;;;;;;;;8.00;99.90;;;;;;5047417;28;19919;-86
2023/01/15 00:44:20;;;;;;;;;;;7.90;99.90;;;;;;5038800;28;19979;-86
2023/01/15 00:46:46;;;;;;;;;;;7.90;99.90;;;;;;5040367;28;19929;-84
2023/01/15 00:49:13;;;;;;;;;;;7.90;99.90;;;;;;5035535;28;19932;-84
2023/01/15 00:51:42;;;;;;;;;;;7.90;99.90;;;;;;5023881;28;19960;-85
2023/01/15 00:54:08;;;;;;;;;;;7.90;99.90;;;;;;5036912;28;19925;-85
2023/01/15 00:56:35;;;;;;;;;;;7.90;99.90;;;;;;5019938;28;19921;-85
2023/01/15 00:59:03;;;;;;;;;;;7.90;99.90;;;;;;5017286;28;19929;-85
2023/01/15 01:01:30;;;;;;;;;;;7.90;99.90;;;;;;5020241;28;19921;-85
2023/01/15 01:03:57;;;;;;;;;;;7.90;99.90;;;;;;5019157;28;19929;-86
2023/01/15 01:06:24;;;;;;;;;;;7.90;99.90;;;;;;5025177;28;19924;-85
2023/01/15 01:08:52;;;;;;;;;;;7.80;99.90;;;;;;5047562;28;19928;-85
2023/01/15 01:11:20;;;;;;;;;;;7.80;99.90;;;;;;5029283;28;20377;-85
2023/01/15 01:13:47;;;;;;;;;;;7.80;99.90;;;;;;5037938;28;20283;-85
2023/01/15 01:16:21;;;;;;;;;;;7.70;99.90;;;;;;5034682;28;19979;-85
2023/01/15 01:18:48;;;;;;;;;;;7.80;99.90;;;;;;5037982;28;20490;-85
2023/01/15 01:21:15;;;;;;;;;;;7.40;99.90;;;;;;5025307;28;19925;-84
2023/01/15 01:23:42;;;;;;;;;;;7.80;99.90;;;;;;5036435;28;20302;-86
2023/01/15 01:26:10;;;;;;;;;;;7.80;99.90;;;;;;5036730;28;20616;-85
2023/01/15 01:28:37;;;;;;;;;;;7.80;99.90;;;;;;5025569;28;19924;-85
2023/01/15 01:31:04;;;;;;;;;;;7.70;99.90;;;;;;5034321;28;19929;-84
2023/01/15 01:33:31;;;;;;;;;;;7.80;99.90;;;;;;5034472;28;20429;-85
2023/01/15 01:35:58;;;;;;;;;;;7.80;99.90;;;;;;5020196;28;21470;-86
2023/01/15 01:38:25;;;;;;;;;;;7.70;99.90;;;;;;5034478;28;19952;-85
2023/01/15 01:40:52;;;;;;;;;;;7.70;99.90;;;;;;5034009;28;19925;-84
2023/01/15 01:43:21;;;;;;;;;;;7.70;99.90;;;;;;5018089;28;20059;-85
2023/01/15 01:45:48;;;;;;;;;;;7.70;99.90;;;;;;5022548;28;19968;-85
2023/01/15 01:48:16;;;;;;;;;;;7.70;99.90;;;;;;5036961;28;19924;-85
2023/01/15 01:50:43;;;;;;;;;;;7.70;99.90;;;;;;5018866;28;19920;-85
2023/01/15 01:53:12;;;;;;;;;;;7.70;99.90;;;;;;5019191;28;20364;-85
2023/01/15 01:55:39;;;;;;;;;;;7.70;99.90;;;;;;5035680;28;19921;-85
2023/01/15 01:58:08;;;;;;;;;;;7.60;99.90;;;;;;5015620;28;20002;-85
2023/01/15 02:00:38;;;;;;;;;;;7.60;99.90;;;;;;5020100;28;19955;-84
2023/01/15 02:03:05;;;;;;;;;;;7.60;99.90;;;;;;5019955;28;19925;-86
2023/01/15 02:05:33;;;;;;;;;;;7.90;99.90;;;;;;5037431;28;20073;-85
2023/01/15 02:08:00;;;;;;;;;;;7.60;99.90;;;;;;5039297;28;19925;-85
2023/01/15 02:10:28;;;;;;;;;;;7.60;99.90;;;;;;5028349;28;19925;-86
2023/01/15 02:13:00;;;;;;;;;;;7.60;99.90;;;;;;5019417;28;20456;-83
2023/01/15 02:15:31;;;;;;;;;;;7.60;99.90;;;;;;5041498;28;19936;-85
2023/01/15 02:18:05;;;;;;;;;;;7.60;99.90;;;;;;5037729;28;19924;-85
2023/01/15 02:20:36;;;;;;;;;;;7.60;99.90;;;;;;5037880;28;19952;-85
2023/01/15 02:23:16;;;;;;;;;;;7.50;99.90;;;;;;5028917;28;19925;-84
2023/01/15 02:25:52;;;;;;;;;;;7.60;99.90;;;;;;5042798;28;19924;-84
2023/01/15 02:28:24;;;;;;;;;;;7.60;99.90;;;;;;5023012;28;19920;-84
2023/01/15 02:30:53;;;;;;;;;;;7.60;99.90;;;;;;5037800;28;19963;-83
2023/01/15 02:33:21;;;;;;;;;;;7.60;99.90;;;;;;5020414;28;19925;-83
2023/01/15 02:35:52;;;;;;;;;;;7.60;99.90;;;;;;5024542;28;19920;-83
2023/01/15 02:38:21;;;;;;;;;;;7.60;99.90;;;;;;5044038;28;20385;-84
2023/01/15 02:40:52;;;;;;;;;;;7.50;99.90;;;;;;5038040;28;20002;-84
2023/01/15 02:43:23;;;;;;;;;;;7.50;99.90;;;;;;5042993;28;19964;-84
2023/01/15 02:45:51;;;;;;;;;;;7.50;99.90;;;;;;5038922;28;19983;-84
2023/01/15 02:48:20;;;;;;;;;;;7.50;99.90;;;;;;5041937;28;20395;-85
2023/01/15 02:50:48;;;;;;;;;;;7.50;99.90;;;;;;5019410;28;19932;-85
2023/01/15 02:53:20;;;;;;;;;;;7.50;99.90;;;;;;5024031;28;20412;-85
2023/01/15 02:55:49;;;;;;;;;;;7.50;99.90;;;;;;5042628;28;19921;-84
2023/01/15 02:58:21;;;;;;;;;;;8.80;99.90;;;;;;5042195;28;19924;-85
2023/01/15 03:00:52;;;;;;;;;;;7.50;99.90;;;;;;5041386;28;20568;-85
2023/01/15 03:03:24;;;;;;;;;;;7.50;99.90;;;;;;5049416;28;19921;-84
2023/01/15 03:05:54;;;;;;;;;;;7.50;99.90;;;;;;5026353;28;20322;-86
2023/01/15 03:08:20;;;;;;;;;;;7.50;99.90;;;;;;5042430;28;19925;-85
2023/01/15 03:10:48;;;;;;;;;;;7.50;99.90;;;;;;5041122;28;20261;-85
2023/01/15 03:13:17;;;;;;;;;;;7.50;99.90;;;;;;5029178;28;19924;-84
2023/01/15 03:18:41;;;;;;;;;;;7.50;99.90;;;;;;5040230;28;19924;-84
2023/01/15 03:21:10;;;;;;;;;;;7.50;99.90;;;;;;5039577;28;20299;-84
2023/01/15 03:23:39;;;;;;;;;;;7.50;99.90;;;;;;5027917;28;19929;-85
2023/01/15 03:26:06;;;;;;;;;;;7.40;99.90;;;;;;5021632;28;20488;-84
2023/01/15 03:28:39;;;;;;;;;;;7.50;99.90;;;;;;5039575;28;20349;-84
2023/01/15 03:31:07;;;;;;;;;;;7.40;99.90;;;;;;5026003;28;19936;-85
2023/01/15 03:33:34;;;;;;;;;;;7.40;99.90;;;;;;5041930;28;19933;-84
2023/01/15 03:36:02;;;;;;;;;;;7.40;99.90;;;;;;5022764;28;19929;-85
2023/01/15 03:38:39;;;;;;;;;;;7.40;99.90;;;;;;5023690;28;20059;-84
2023/01/15 03:41:14;;;;;;;;;;;7.40;99.90;;;;;;5026440;28;19997;-84
2023/01/15 03:43:49;;;;;;;;;;;7.40;99.90;;;;;;5029800;28;19963;-86
2023/01/15 03:46:26;;;;;;;;;;;7.40;99.90;;;;;;5035260;28;19928;-84
2023/01/15 03:48:56;;;;;;;;;;;7.40;99.90;;;;;;5053085;28;19964;-83
2023/01/15 03:51:24;;;;;;;;;;;7.40;99.90;;;;;;5035390;28;19937;-83
2023/01/15 03:53:54;;;;;;;;;;;7.30;99.90;;;;;;5051231;28;19925;-83
2023/01/15 03:56:24;;;;;;;;;;;7.30;99.90;;;;;;5042908;28;19934;-83
2023/01/15 03:58:53;;;;;;;;;;;7.30;99.90;;;;;;5052718;28;19928;-83
2023/01/15 04:01:30;;;;;;;;;;;7.30;99.90;;;;;;5051620;28;19928;-82
2023/01/15 04:03:59;;;;;;;;;;;7.40;99.90;;;;;;5035724;28;20033;-83
2023/01/15 04:06:29;;;;;;;;;;;7.30;99.90;;;;;;5023736;28;20031;-82
2023/01/15 04:08:57;;;;;;;;;;;7.30;99.90;;;;;;5022744;28;19935;-83
2023/01/15 04:11:25;;;;;;;;;;;7.30;99.90;;;;;;5020353;28;19935;-83
2023/01/15 04:13:55;;;;;;;;;;;7.30;99.90;;;;;;5023076;28;19924;-83
2023/01/15 04:16:45;;;;;;;;;;;7.30;99.90;;;;;;5019169;28;20307;-83
2023/01/15 04:19:13;;;;;;;;;;;7.30;99.90;;;;;;5023251;28;19924;-83
2023/01/15 04:21:48;;;;;;;;;;;7.30;99.90;;;;;;5019498;28;20019;-83
2023/01/15 04:24:15;;;;;;;;;;;7.20;99.90;;;;;;5040334;28;19939;-84
2023/01/15 04:26:41;;;;;;;;;;;7.20;99.90;;;;;;5029740;28;19936;-83
2023/01/15 04:29:11;;;;;;;;;;;7.20;99.90;;;;;;5019926;28;19936;-83
2023/01/15 04:31:38;;;;;;;;;;;7.20;99.90;;;;;;5021794;28;19991;-82
2023/01/15 04:34:06;;;;;;;;;;;7.20;99.90;;;;;;5044731;28;19935;-84
2023/01/15 04:36:34;;;;;;;;;;;7.20;99.90;;;;;;5045101;28;20603;-83
2023/01/15 04:39:01;;;;;;;;;;;7.20;99.90;;;;;;5045834;28;19939;-83
2023/01/15 04:44:12;;;;;;;;;;;7.20;99.90;;;;;;5042161;28;19931;-83
2023/01/15 04:46:40;;;;;;;;;;;7.20;99.90;;;;;;5045081;28;19928;-82
2023/01/15 04:49:08;;;;;;;;;;;7.20;99.90;;;;;;5050610;28;19928;-84
2023/01/15 04:51:36;;;;;;;;;;;7.30;99.90;;;;;;5043174;28;19925;-82
2023/01/15 04:54:04;;;;;;;;;;;7.20;99.90;;;;;;5043050;28;19968;-82
2023/01/15 04:56:31;;;;;;;;;;;7.30;99.90;;;;;;5043584;28;19929;-82
2023/01/15 04:58:59;;;;;;;;;;;7.30;99.90;;;;;;5040857;28;19929;-83
2023/01/15 05:01:26;;;;;;;;;;;7.30;99.90;;;;;;5025343;28;19925;-83
2023/01/15 05:03:53;;;;;;;;;;;7.30;99.90;;;;;;5024786;28;20054;-84
2023/01/15 05:06:21;;;;;;;;;;;6.30;99.90;;;;;;5043427;28;19936;-83
2023/01/15 05:08:47;;;;;;;;;;;7.30;99.90;;;;;;5025533;28;19987;-83
2023/01/15 05:11:14;;;;;;;;;;;7.30;99.90;;;;;;5023130;28;19924;-83
2023/01/15 05:13:41;;;;;;;;;;;7.30;99.90;;;;;;5041563;28;20371;-83
2023/01/15 05:16:08;;;;;;;;;;;7.30;99.90;;;;;;5025320;28;19924;-83
2023/01/15 05:18:35;;;;;;;;;;;7.30;99.90;;;;;;5039423;28;19924;-83
2023/01/15 05:21:02;;;;;;;;;;;7.30;99.90;;;;;;5039415;28;19928;-84
2023/01/15 05:23:30;;;;;;;;;;;7.30;99.90;;;;;;5040428;28;20437;-84
2023/01/15 05:25:56;;;;;;;;;;;9.30;99.90;;;;;;5042679;28;19928;-83
2023/01/15 05:28:23;;;;;;;;;;;7.30;99.90;;;;;;5042082;28;19925;-82
2023/01/15 05:30:50;;;;;;;;;;;7.30;99.90;;;;;;5037463;28;19931;-83
2023/01/15 05:33:18;;;;;;;;;;;7.30;99.90;;;;;;5023610;28;19925;-83
2023/01/15 05:35:45;;;;;;;;;;;7.30;99.90;;;;;;5025716;28;20003;-84
2023/01/15 05:38:11;;;;;;;;;;;7.40;99.90;;;;;;5030875;28;19940;-83
2023/01/15 05:40:39;;;;;;;;;;;7.30;99.90;;;;;;5041023;28;19935;-84
2023/01/15 05:43:06;;;;;;;;;;;7.40;99.90;;;;;;5033714;28;19928;-84
2023/01/15 05:45:34;;;;;;;;;;;7.40;99.90;;;;;;5025337;28;20019;-84
2023/01/15 05:48:00;;;;;;;;;;;7.40;99.90;;;;;;5034761;28;20313;-84
2023/01/15 05:50:29;;;;;;;;;;;7.40;99.90;;;;;;5014628;28;19929;-84
2023/01/15 05:52:55;;;;;;;;;;;7.40;99.90;;;;;;5014932;28;19979;-83
2023/01/15 05:55:22;;;;;;;;;;;7.40;99.90;;;;;;5017735;28;19947;-83
2023/01/15 05:57:50;;;;;;;;;;;7.50;99.90;;;;;;5032360;28;19928;-84
2023/01/15 06:00:17;;;;;;;;;;;7.50;99.90;;;;;;5032605;28;19928;-84
2023/01/15 06:02:48;;;;;;;;;;;7.50;99.90;;;;;;5033747;28;19925;-83
2023/01/15 06:05:18;;;;;;;;;;;7.50;99.90;;;;;;5033153;28;19928;-84
2023/01/15 06:07:47;;;;;;;;;;;7.50;99.90;;;;;;5031475;28;19940;-83
2023/01/15 06:10:14;;;;;;;;;;;7.60;99.90;;;;;;5032979;28;19932;-84
2023/01/15 06:12:41;;;;;;;;;;;7.50;99.90;;;;;;5039384;28;19929;-85
2023/01/15 06:15:11;;;;;;;;;;;7.50;99.90;;;;;;5038973;28;19931;-84
2023/01/15 06:17:37;;;;;;;;;;;7.50;99.90;;;;;;5024571;28;21215;-85
2023/01/15 06:20:04;;;;;;;;;;;7.50;99.90;;;;;;5039899;28;19936;-84
2023/01/15 06:22:34;;;;;;;;;;;7.50;99.90;;;;;;5022613;28;19979;-85
2023/01/15 06:25:01;;;;;;;;;;;7.50;99.90;;;;;;5029581;28;19927;-82
2023/01/15 06:27:28;;;;;;;;;;;7.50;99.90;;;;;;5034608;28;19927;-83
2023/01/15 06:29:57;;;;;;;;;;;7.50;99.90;;;;;;5025174;28;20008;-84
2023/01/15 06:32:26;;;;;;;;;;;7.50;99.90;;;;;;5037817;28;19933;-84
2023/01/15 06:34:52;;;;;;;;;;;7.60;99.90;;;;;;5018780;28;19928;-84
2023/01/15 06:37:19;;;;;;;;;;;7.60;99.90;;;;;;5025742;28;19929;-84
2023/01/15 06:39:46;;;;;;;;;;;7.60;99.90;;;;;;5018747;28;20138;-84
2023/01/15 06:47:44;;;;;;;;;;;7.60;99.90;;;;;;5037685;28;20639;-84
2023/01/15 06:50:11;;;;;;;;;;;7.60;99.90;;;;;;5034936;28;19979;-83
2023/01/15 06:52:37;;;;;;;;;;;7.60;99.90;;;;;;5019316;28;20047;-84
2023/01/15 06:55:04;;;;;;;;;;;7.60;99.90;;;;;;5021448;28;20316;-83
2023/01/15 06:57:31;;;;;;;;;;;7.60;99.90;;;;;;5042095;28;19936;-83
2023/01/15 06:59:58;;;;;;;;;;;7.60;99.90;;;;;;5043978;28;19928;-84
2023/01/15 07:02:24;;;;;;;;;;;7.60;99.90;;;;;;5028321;28;19925;-84
2023/01/15 07:04:53;;;;;;;;;;;7.50;99.90;;;;;;5039504;28;20312;-85
2023/01/15 07:07:20;;;;;;;;;;;7.50;99.90;;;;;;5041713;28;19944;-83
2023/01/15 07:09:47;;;;;;;;;;;7.50;99.90;;;;;;5024315;28;19943;-83
2023/01/15 07:12:13;;;;;;;;;;;7.50;99.90;;;;;;5019938;28;19921;-83
2023/01/15 07:14:40;;;;;;;;;;;7.50;99.90;;;;;;5038739;28;19924;-83
2023/01/15 07:17:07;;;;;;;;;;;7.50;99.90;;;;;;5041852;28;19929;-83
2023/01/15 07:19:34;;;;;;;;;;;7.50;99.90;;;;;;5044070;28;19920;-82
2023/01/15 07:22:02;;;;;;;;;;;7.50;99.90;;;;;;5042853;28;19940;-83
2023/01/15 07:24:28;;;;;;;;;;;7.50;99.90;;;;;;5024269;28;20015;-83
2023/01/15 07:26:55;;;;;;;;;;;7.50;99.90;;;;;;5031346;28;20093;-83
2023/01/15 07:29:22;;;;;;;;;;;7.40;99.90;;;;;;5055057;28;19924;-83
2023/01/15 07:31:49;;;;;;;;;;;7.50;99.90;;;;;;5041219;28;19925;-83
2023/01/15 07:34:15;;;;;;;;;;;7.40;99.90;;;;;;5048580;28;20003;-83
2023/01/15 07:36:43;;;;;;;;;;;7.40;99.90;;;;;;5047768;28;19936;-83
2023/01/15 07:39:11;;;;;;;;;;;7.40;99.90;;;;;;5033033;28;19948;-84
2023/01/15 07:50:01;;;;;;;;;;;7.30;99.90;;;;;;5037086;28;20664;-84
2023/01/15 07:52:28;;;;;;;;;;;7.30;99.90;;;;;;5039315;28;19929;-84
2023/01/15 07:54:56;;;;;;;;;;;7.30;99.90;;;;;;5040033;28;19931;-84
2023/01/15 07:57:23;;;;;;;;;;;7.40;99.90;;;;;;5040692;28;19925;-83
2023/01/15 07:59:50;;;;;;;;;;;7.30;99.90;;;;;;5051966;28;19935;-83
2023/01/15 08:02:17;;;;;;;;;;;7.40;99.90;;;;;;5042068;28;19932;-83
2023/01/15 08:04:46;;;;;;;;;;;7.30;99.90;;;;;;5041823;28;19921;-87
2023/01/15 08:07:14;;;;;;;;;;;7.30;99.90;;;;;;5033204;28;20513;-88
2023/01/15 08:09:40;;;;;;;;;;;7.40;99.90;;;;;;5051465;28;19920;-88
2023/01/15 08:15:15;;;;;;;;;;;7.40;99.90;;;;;;5054383;28;20013;-87
2023/01/15 08:17:42;;;;;;;;;;;7.40;99.90;;;;;;5068623;28;19908;-85
2023/01/15 08:20:18;;;;;;;;;;;7.40;99.90;;;;;;5096936;28;19972;-85
2023/01/15 08:22:45;;;;;;;;;;;8.20;99.90;;;;;;5078880;28;19976;-85
2023/01/15 08:25:14;;;;;;;;;;;7.50;99.90;;;;;;5071867;28;19942;-85
2023/01/15 08:27:42;;;;;;;;;;;7.50;99.90;;;;;;5069211;28;20031;-85
2023/01/15 08:30:11;;;;;;;;;;;7.50;99.90;;;;;;5062230;28;19934;-85
2023/01/15 08:32:38;;;;;;;;;;;7.50;99.90;;;;;;5082787;28;19920;-85
2023/01/15 08:35:05;;;;;;;;;;;7.50;99.90;;;;;;5045550;28;19925;-86
2023/01/15 08:37:32;;;;;;;;;;;7.40;99.90;;;;;;5056576;28;20026;-87
2023/01/15 08:39:58;;;;;;;;;;;7.40;99.90;;;;;;5045292;28;19947;-86
2023/01/15 08:42:25;;;;;;;;;;;7.40;99.90;;;;;;5051552;28;19921;-87
2023/01/15 08:44:53;;;;;;;;;;;7.40;99.90;;;;;;5040368;28;19931;-86
2023/01/15 08:47:21;;;;;;;;;;;7.30;99.90;;;;;;5050967;28;19931;-87
2023/01/15 08:49:48;;;;;;;;;;;7.30;99.90;;;;;;5031749;28;19928;-86
2023/01/15 08:52:15;;;;;;;;;;;7.30;99.90;;;;;;5058968;28;19924;-84
2023/01/15 08:54:42;;;;;;;;;;;7.20;99.90;;;;;;5050874;28;19946;-85
2023/01/15 08:57:10;;;;;;;;;;;7.20;99.90;;;;;;5042531;28;19928;-85
2023/01/15 08:59:37;;;;;;;;;;;7.10;99.90;;;;;;5038659;28;19939;-85
2023/01/15 09:02:05;;;;;;;;;;;7.10;99.90;;;;;;5049290;28;19924;-85
2023/01/15 09:04:32;;;;;;;;;;;7.00;99.90;;;;;;5067422;28;19925;-86
2023/01/15 09:06:59;;;;;;;;;;;6.90;99.90;;;;;;5067046;28;19924;-84
2023/01/15 09:09:26;;;;;;;;;;;6.90;99.90;;;;;;5058198;28;20306;-85
2023/01/15 09:11:53;;;;;;;;;;;6.90;99.90;;;;;;5045361;28;20454;-85
2023/01/15 09:14:20;;;;;;;;;;;6.80;99.90;;;;;;5068694;28;20475;-84
2023/01/15 09:16:46;;;;;;;;;;;6.80;99.90;;;;;;5065471;28;19924;-83
2023/01/15 09:19:14;;;;;;;;;;;6.80;99.90;;;;;;5048542;28;19924;-82
2023/01/15 09:21:42;;;;;;;;;;;6.80;99.90;;;;;;5058408;28;19921;-84
2023/01/15 09:24:09;;;;;;;;;;;6.80;99.90;;;;;;5062328;28;19954;-86
2023/01/15 09:26:37;;;;;;;;;;;6.90;99.90;;;;;;5037544;28;19920;-84
2023/01/15 09:29:04;;;;;;;;;;;7.00;99.90;;;;;;5054227;28;19920;-84
2023/01/15 09:31:31;;;;;;;;;;;7.20;99.90;;;;;;5058659;28;19931;-85
2023/01/15 09:33:58;;;;;;;;;;;7.20;99.90;;;;;;5038202;28;19936;-85
2023/01/15 09:36:30;;;;;;;;;;;7.40;99.90;;;;;;5037492;28;20434;-86
2023/01/15 09:38:57;;;;;;;;;;;7.50;99.90;;;;;;5052631;28;19925;-85
2023/01/15 09:44:19;;;;;;;;;;;7.80;99.90;;;;;;5035399;28;20405;-86
2023/01/15 09:46:50;;;;;;;;;;;7.90;99.90;;;;;;5049624;28;20373;-86
2023/01/15 09:49:25;;;;;;;;;;;8.00;99.90;;;;;;5043509;28;19985;-86
2023/01/15 09:51:59;;;;;;;;;;;8.10;99.90;;;;;;5056233;28;20405;-84
2023/01/15 09:54:34;;;;;;;;;;;8.30;99.90;;;;;;5063935;28;19924;-86
2023/01/15 09:57:02;;;;;;;;;;;8.40;99.90;;;;;;5037980;28;20138;-85
2023/01/15 09:59:31;;;;;;;;;;;8.50;99.90;;;;;;5021757;28;19929;-85
2023/01/15 10:02:00;;;;;;;;;;;8.60;99.90;;;;;;5037860;28;19929;-86
2023/01/15 10:04:31;;;;;;;;;;;8.90;99.90;;;;;;5062317;28;20628;-85
2023/01/15 10:07:03;;;;;;;;;;;9.00;99.90;;;;;;5041800;28;19924;-86
2023/01/15 10:09:34;;;;;;;;;;;8.90;99.90;;;;;;5055352;28;19932;-86
2023/01/15 10:14:53;;;;;;;;;;;9.00;99.90;;;;;;5040399;28;20041;-84
2023/01/15 10:17:22;;;;;;;;;;;9.00;99.90;;;;;;5019547;28;19937;-85
2023/01/15 10:19:49;;;;;;;;;;;9.00;99.90;;;;;;5035228;28;19936;-85
2023/01/15 10:22:23;;;;;;;;;;;9.00;99.90;;;;;;5037540;28;19925;-84
2023/01/15 10:24:55;;;;;;;;;;;8.90;99.90;;;;;;5038029;28;19929;-84
2023/01/15 10:27:23;;;;;;;;;;;8.90;99.90;;;;;;5038604;28;19921;-84
2023/01/15 10:29:54;;;;;;;;;;;8.80;99.90;;;;;;5026442;28;19921;-83
2023/01/15 10:32:23;;;;;;;;;;;8.70;99.90;;;;;;5039742;28;19932;-83
2023/01/15 10:35:04;;;;;;;;;;;8.70;99.90;;;;;;5044504;28;19947;-83
2023/01/15 10:37:40;;;;;;;;;;;8.70;99.90;;;;;;5027142;28;19924;-84
2023/01/15 10:40:24;;;;;;;;;;;8.80;99.90;;;;;;5028163;28;21278;-85
2023/01/15 10:42:57;;;;;;;;;;;8.90;99.90;;;;;;5027878;28;19928;-83
2023/01/15 10:45:25;;;;;;;;;;;8.90;99.90;;;;;;5024972;28;19925;-84
2023/01/15 10:47:55;;;;;;;;;;;9.10;99.90;;;;;;5027187;28;20309;-85
2023/01/15 10:50:23;;;;;;;;;;;9.30;99.90;;;;;;5041870;28;20023;-84
2023/01/15 10:52:57;;;;;;;;;;;9.40;99.90;;;;;;5040927;28;20749;-84
2023/01/15 10:55:27;;;;;;;;;;;9.40;99.90;;;;;;5017729;28;19925;-84
2023/01/15 10:57:57;;;;;;;;;;;9.50;99.90;;;;;;5036137;28;19924;-83
2023/01/15 11:00:25;;;;;;;;;;;9.60;99.90;;;;;;5028006;28;20024;-84
2023/01/15 11:02:58;;;;;;;;;;;9.90;99.90;;;;;;5049128;28;19931;-84
2023/01/15 11:05:25;;;;;;;;;;;9.90;99.90;;;;;;5060957;28;19921;-84
2023/01/15 11:07:53;;;;;;;;;;;9.90;99.90;;;;;;5037822;28;19966;-84
2023/01/15 11:10:21;;;;;;;;;;;10.10;99.90;;;;;;5044523;28;19928;-84
2023/01/15 11:21:11;;;;;;;;;;;10.50;99.90;;;;;;5050604;28;20015;-84
2023/01/15 11:23:39;;;;;;;;;;;9.90;99.90;;;;;;5050856;28;19924;-83
2023/01/15 11:26:06;;;;;;;;;;;10.00;99.90;;;;;;5042963;28;19925;-83
2023/01/15 11:28:38;;;;;;;;;;;9.90;99.90;;;;;;5045434;28;19928;-83
2023/01/15 11:31:05;;;;;;;;;;;9.80;99.90;;;;;;5044770;28;20023;-84
2023/01/15 11:33:32;;;;;;;;;;;9.80;99.90;;;;;;5028113;28;19925;-84
2023/01/15 11:36:00;;;;;;;;;;;9.80;99.90;;;;;;5046823;28;20024;-83
2023/01/15 11:38:29;;;;;;;;;;;9.80;99.90;;;;;;5029073;28;20021;-84
2023/01/15 11:40:58;;;;;;;;;;;9.70;99.90;;;;;;5064649;28;19931;-85
2023/01/15 11:51:54;;;;;;;;;;;9.50;99.90;;;;;;5030635;28;19932;-83
2023/01/15 11:54:21;;;;;;;;;;;9.40;99.90;;;;;;5064431;28;19924;-82
2023/01/15 11:56:50;;;;;;;;;;;9.40;99.90;;;;;;5059350;28;19925;-84
2023/01/15 11:59:18;;;;;;;;;;;9.40;99.90;;;;;;5041993;28;19925;-84
2023/01/15 12:01:53;;;;;;;;;;;9.40;99.90;;;;;;5040817;28;20031;-84
2023/01/15 12:04:29;;;;;;;;;;;9.50;99.90;;;;;;5053802;28;19920;-83
2023/01/15 12:06:57;;;;;;;;;;;9.70;99.90;;;;;;5049922;28;19952;-83
2023/01/15 12:09:29;;;;;;;;;;;9.80;99.90;;;;;;5056401;28;19928;-84
2023/01/15 12:12:03;;;;;;;;;;;9.90;99.90;;;;;;5057954;28;19932;-83
2023/01/15 12:14:43;;;;;;;;;;;9.90;99.90;;;;;;5061714;28;19963;-84
2023/01/15 12:17:15;;;;;;;;;;;9.90;99.90;;;;;;5057091;28;20444;-85
2023/01/15 12:19:46;;;;;;;;;;;9.70;99.90;;;;;;5054931;28;19925;-85
2023/01/15 12:22:36;;;;;;;;;;;9.70;99.90;;;;;;5057663;28;19928;-85
2023/01/15 12:25:13;;;;;;;;;;;9.70;99.90;;;;;;5050524;28;19925;-86
2023/01/15 12:27:58;;;;;;;;;;;9.70;99.90;;;;;;5047029;28;19920;-85
2023/01/15 12:30:44;;;;;;;;;;;9.70;99.90;;;;;;5053377;28;19929;-85
2023/01/15 12:33:18;;;;;;;;;;;9.70;99.90;;;;;;5045952;28;19928;-86
2023/01/15 12:35:49;;;;;;;;;;;9.60;99.90;;;;;;5017112;28;19958;-85
2023/01/15 12:38:18;;;;;;;;;;;9.60;99.90;;;;;;5041476;28;19933;-86
2023/01/15 12:40:47;;;;;;;;;;;9.60;99.90;;;;;;5030278;28;20416;-84
2023/01/15 12:46:04;;;;;;;;;;;9.80;99.90;;;;;;5050164;28;19922;-84
2023/01/15 12:48:34;;;;;;;;;;;9.80;99.90;;;;;;5065886;28;19917;-83
2023/01/15 12:51:02;;;;;;;;;;;9.80;99.90;;;;;;5058870;28;19931;-84
2023/01/15 12:53:32;;;;;;;;;;;9.80;99.90;;;;;;5019873;28;19964;-85
2023/01/15 12:56:00;;;;;;;;;;;9.80;99.90;;;;;;5043360;28;19932;-84
2023/01/15 12:58:39;;;;;;;;;;;10.10;99.90;;;;;;5056296;28;19921;-84
2023/01/15 13:01:11;;;;;;;;;;;9.60;99.90;;;;;;5025218;28;20402;-86
2023/01/15 13:03:48;;;;;;;;;;;9.60;99.90;;;;;;5041894;28;19928;-85
2023/01/15 13:06:16;;;;;;;;;;;9.50;99.90;;;;;;5031628;28;19932;-83
2023/01/15 13:08:49;;;;;;;;;;;9.40;99.90;;;;;;5050764;28;20258;-85
2023/01/15 13:11:16;;;;;;;;;;;9.40;99.90;;;;;;5046388;28;19920;-85
2023/01/15 13:13:56;;;;;;;;;;;9.30;99.90;;;;;;5049811;28;19921;-85
2023/01/15 13:16:28;;;;;;;;;;;9.40;99.90;;;;;;5059705;28;19921;-84
2023/01/15 13:19:00;;;;;;;;;;;10.10;99.90;;;;;;5059534;28;19921;-85
2023/01/15 13:21:29;;;;;;;;;;;9.30;99.90;;;;;;5045660;28;19936;-85
2023/01/15 13:24:02;;;;;;;;;;;9.20;99.90;;;;;;5048801;28;19927;-86
2023/01/15 13:26:47;;;;;;;;;;;9.20;99.90;;;;;;5057299;28;19924;-84
2023/01/15 13:29:17;;;;;;;;;;;9.10;99.90;;;;;;5036761;28;19929;-84
2023/01/15 13:31:57;;;;;;;;;;;9.10;99.90;;;;;;5060188;28;19925;-84
2023/01/15 13:34:29;;;;;;;;;;;9.10;99.90;;;;;;5043023;28;20051;-85
2023/01/15 13:36:57;;;;;;;;;;;9.10;99.90;;;;;;5031740;28;19932;-85
2023/01/15 13:39:31;;;;;;;;;;;9.10;99.90;;;;;;5050730;28;19921;-85
2023/01/15 13:44:53;;;;;;;;;;;9.10;99.90;;;;;;5065637;28;19985;-85
2023/01/15 13:47:27;;;;;;;;;;;9.00;99.90;;;;;;5068095;28;19947;-85
2023/01/15 13:49:58;;;;;;;;;;;8.90;99.90;;;;;;5049372;28;19928;-84
2023/01/15 13:52:31;;;;;;;;;;;8.90;99.90;;;;;;5060559;28;19986;-85
2023/01/15 13:55:09;;;;;;;;;;;8.80;99.90;;;;;;5037868;28;19920;-85
2023/01/15 13:57:39;;;;;;;;;;;8.80;99.90;;;;;;5057926;28;19927;-85
2023/01/15 14:00:27;;;;;;;;;;;8.80;99.90;;;;;;5051629;28;20003;-85
2023/01/15 14:03:26;;;;;;;;;;;8.90;99.90;;;;;;5048715;28;20437;-85
2023/01/15 14:06:04;;;;;;;;;;;9.00;99.90;;;;;;5045348;28;19925;-86
2023/01/15 14:08:39;;;;;;;;;;;9.10;99.90;;;;;;5022738;28;20035;-86
2023/01/15 14:11:21;;;;;;;;;;;9.00;99.90;;;;;;5046937;28;20451;-85
2023/01/15 14:14:08;;;;;;;;;;;9.00;99.90;;;;;;5034702;28;20434;-86
2023/01/15 14:16:53;;;;;;;;;;;9.00;99.90;;;;;;5053657;28;20023;-85
2023/01/15 14:19:35;;;;;;;;;;;9.00;99.90;;;;;;5061423;28;19920;-85
2023/01/15 14:22:21;;;;;;;;;;;8.90;99.90;;;;;;5071416;28;19924;-85
2023/01/15 14:24:58;;;;;;;;;;;9.10;99.90;;;;;;5033326;28;20591;-85
2023/01/15 14:27:37;;;;;;;;;;;9.10;99.90;;;;;;5055173;28;19934;-84
2023/01/15 14:30:23;;;;;;;;;;;9.10;99.90;;;;;;5031907;28;19920;-85
2023/01/15 14:32:57;;;;;;;;;;;9.00;99.90;;;;;;5039469;28;20020;-85
2023/01/15 14:35:27;;;;;;;;;;;8.90;99.90;;;;;;5057687;28;19936;-85
2023/01/15 14:37:59;;;;;;;;;;;8.90;99.90;;;;;;5025286;28;19924;-84
2023/01/15 14:40:29;;;;;;;;;;;8.90;99.90;;;;;;5037987;28;19931;-86
2023/01/15 14:43:03;;;;;;;;;;;8.80;99.90;;;;;;5042991;28;19909;-84
2023/01/15 14:45:31;;;;;;;;;;;8.80;99.90;;;;;;5072326;28;19948;-82
2023/01/15 14:47:59;;;;;;;;;;;8.80;99.90;;;;;;5073110;28;19950;-83
2023/01/15 14:50:48;;;;;;;;;;;8.80;99.90;;;;;;5058008;28;19919;-83
2023/01/15 14:53:30;;;;;;;;;;;8.80;99.90;;;;;;5042034;28;20442;-83
2023/01/15 14:56:02;;;;;;;;;;;8.80;99.90;;;;;;5038118;28;19931;-83
2023/01/15 14:58:45;;;;;;;;;;;8.80;99.90;;;;;;5040369;28;20473;-86
2023/01/15 15:01:15;;;;;;;;;;;8.80;99.90;;;;;;5042977;28;19932;-85
2023/01/15 15:03:46;;;;;;;;;;;8.80;99.90;;;;;;5054167;28;19928;-85
2023/01/15 15:06:13;;;;;;;;;;;8.80;99.90;;;;;;5042395;28;19920;-84
2023/01/15 15:08:42;;;;;;;;;;;8.80;99.90;;;;;;5042240;28;20019;-83
2023/01/15 15:12:17;;;;;;;;;;;8.80;99.90;;;;;;5038462;28;20034;-83
2023/01/15 15:14:04;;;;;;;;;;;8.80;99.90;;;;;;5045285;28;19936;-84
2023/01/15 15:16:31;;;;;;;;;;;8.70;99.90;;;;;;5049322;28;19924;-84
2023/01/15 15:19:00;;;;;;;;;;;8.70;99.90;;;;;;5057393;28;19924;-84
2023/01/15 15:21:28;;;;;;;;;;;8.70;99.90;;;;;;5036256;28;20007;-84
2023/01/15 15:23:59;;;;;;;;;;;8.70;99.90;;;;;;5037027;28;19921;-84
2023/01/15 15:26:27;;;;;;;;;;;8.70;99.90;;;;;;5042816;28;19978;-84
2023/01/15 15:28:58;;;;;;;;;;;8.60;99.90;;;;;;5052919;28;20061;-83
2023/01/15 15:31:27;;;;;;;;;;;8.60;99.90;;;;;;5033980;28;19963;-84
2023/01/15 15:33:54;;;;;;;;;;;8.50;99.90;;;;;;5045481;28;19920;-84
2023/01/15 15:36:21;;;;;;;;;;;8.50;99.90;;;;;;5047234;28;19925;-84
2023/01/15 15:38:52;;;;;;;;;;;8.50;99.90;;;;;;5034973;28;19936;-84
2023/01/15 15:48:40;;;;;;;;;;;8.50;99.90;;;;;;5039051;28;19925;-83
2023/01/15 15:49:41;;;;;;;;;;;8.40;99.90;;;;;;5060853;28;19974;-84